Terminal Aerodrome Forecast
Issued by NWS North Platte, NE

Home | Current Version | Previous Version | Text Only | Print | Product List | Glossary Off
Versions: 1 2 3 4 5 6 7 8 9 10 11 12 13 14 15 16 17 18 19 20 21 22 23

000
FTUS43 KLBF 241700
TAFVTN
TAF
KVTN 241736Z 2418/2518 09008KT P6SM VCSH OVC008
      TEMPO 2419/2422 -SHRA OVC015
     FM242200 08008KT P6SM OVC015
     FM250200 08007KT 6SM BR OVC010
     FM250800 VRB05KT 2SM BR OVC005
     FM251400 35005KT P6SM OVC015=

USA.gov is the U.S. government's official web portal to all federal, state and local government web resources and services.